Hidrolina, Brazil
Current Conditions -  °F | °C
As of 4:00 AM on Monday 26 Jan 2015 (Local Time) from SBAN Reporting Station
Few Clouds Few Clouds  
Wind Chill: 64°   Ceiling: Unl
Heat Index: 64°   Visibility: 6mi
Dew Point: 61°   Wind: 3mph
Humidity: 88%   Direction: 10°N
Pressure: 30.09"   Gusts: NA
Location:  14.72°S, 49.46°W
Report Text: SBAN 260600Z 01003KT 9999 FEW030 18/16 Q1019
Loading
Personal Weather Stations






























Interactive Weather Map New forecast layout! Learn more

10-Day Weather Forecast

Advertisements
Track Severe Weather on mobile